Meopham, United Kingdom
Current Conditions -  °F | °C
As of 7:50 AM on Saturday 20 Dec 2014 (Local Time) from EGLC Reporting Station
Few Clouds Few Clouds  
Wind Chill: 40°   Ceiling: Unl
Heat Index: 46°   Visibility: 6mi
Dew Point: 37°   Wind: 16mph
Humidity: 71%   Direction: 250°WSW
Pressure: 30.24"   Gusts: NA
Location:  51.37°N, 0.36°E
Report Text: EGLC 200750Z 25014KT 9999 FEW040 08/03 Q1024
Loading
Personal Weather Stations






























Interactive Weather Map New forecast layout! Learn more

10-Day Weather Forecast

Advertisements
Track Severe Weather on mobile